sensor_id;sensor_type;location;lat;lon;timestamp;P1;durP1;ratioP1;P2;durP2;ratioP2
45236;SDS011;30973;51.442;3.580;2023-06-04T00:01:23;3.63;;;1.60;;
45236;SDS011;30973;51.442;3.580;2023-06-04T00:03:50;2.67;;;1.65;;
45236;SDS011;30973;51.442;3.580;2023-06-04T00:06:17;4.30;;;1.63;;
45236;SDS011;30973;51.442;3.580;2023-06-04T00:08:43;3.35;;;1.70;;
45236;SDS011;30973;51.442;3.580;2023-06-04T00:11:10;3.97;;;1.85;;
45236;SDS011;30973;51.442;3.580;2023-06-04T00:13:37;3.92;;;1.90;;
45236;SDS011;30973;51.442;3.580;2023-06-04T00:16:04;3.10;;;1.70;;
45236;SDS011;30973;51.442;3.580;2023-06-04T00:18:30;3.90;;;2.25;;
45236;SDS011;30973;51.442;3.580;2023-06-04T00:20:57;3.65;;;1.98;;
45236;SDS011;30973;51.442;3.580;2023-06-04T00:23:24;3.92;;;2.38;;
45236;SDS011;30973;51.442;3.580;2023-06-04T00:25:50;6.00;;;2.70;;
45236;SDS011;30973;51.442;3.580;2023-06-04T00:28:17;5.78;;;2.83;;
45236;SDS011;30973;51.442;3.580;2023-06-04T00:30:45;5.78;;;2.78;;
45236;SDS011;30973;51.442;3.580;2023-06-04T00:33:11;6.78;;;3.17;;
45236;SDS011;30973;51.442;3.580;2023-06-04T00:35:38;6.82;;;2.72;;
45236;SDS011;30973;51.442;3.580;2023-06-04T00:38:05;6.22;;;3.20;;
45236;SDS011;30973;51.442;3.580;2023-06-04T00:40:32;4.95;;;3.00;;
45236;SDS011;30973;51.442;3.580;2023-06-04T00:42:58;6.75;;;2.97;;
45236;SDS011;30973;51.442;3.580;2023-06-04T00:45:25;6.57;;;3.05;;
45236;SDS011;30973;51.442;3.580;2023-06-04T00:47:52;6.40;;;3.13;;
45236;SDS011;30973;51.442;3.580;2023-06-04T00:50:19;7.50;;;2.60;;
45236;SDS011;30973;51.442;3.580;2023-06-04T00:52:48;3.97;;;2.35;;
45236;SDS011;30973;51.442;3.580;2023-06-04T00:55:14;3.78;;;2.30;;
45236;SDS011;30973;51.442;3.580;2023-06-04T00:57:44;6.93;;;2.15;;
45236;SDS011;30973;51.442;3.580;2023-06-04T01:00:11;3.30;;;2.03;;
45236;SDS011;30973;51.442;3.580;2023-06-04T01:02:38;5.57;;;2.20;;
45236;SDS011;30973;51.442;3.580;2023-06-04T01:07:45;4.95;;;2.15;;
45236;SDS011;30973;51.442;3.580;2023-06-04T01:10:13;3.35;;;2.00;;
45236;SDS011;30973;51.442;3.580;2023-06-04T01:12:40;7.47;;;1.77;;
45236;SDS011;30973;51.442;3.580;2023-06-04T01:15:07;3.45;;;1.95;;
45236;SDS011;30973;51.442;3.580;2023-06-04T01:17:41;10.82;;;1.92;;
45236;SDS011;30973;51.442;3.580;2023-06-04T01:22:39;4.68;;;1.83;;
45236;SDS011;30973;51.442;3.580;2023-06-04T01:25:17;4.85;;;1.88;;
45236;SDS011;30973;51.442;3.580;2023-06-04T01:27:48;3.92;;;1.60;;
45236;SDS011;30973;51.442;3.580;2023-06-04T01:30:16;2.40;;;1.50;;
45236;SDS011;30973;51.442;3.580;2023-06-04T01:32:43;3.15;;;1.60;;
45236;SDS011;30973;51.442;3.580;2023-06-04T01:35:11;2.88;;;1.60;;
45236;SDS011;30973;51.442;3.580;2023-06-04T01:37:38;3.42;;;1.60;;
45236;SDS011;30973;51.442;3.580;2023-06-04T01:40:04;4.57;;;1.98;;
45236;SDS011;30973;51.442;3.580;2023-06-04T01:42:31;3.92;;;1.70;;
45236;SDS011;30973;51.442;3.580;2023-06-04T01:44:58;2.85;;;1.50;;
45236;SDS011;30973;51.442;3.580;2023-06-04T01:47:25;4.13;;;1.92;;
45236;SDS011;30973;51.442;3.580;2023-06-04T01:49:52;3.40;;;1.70;;
45236;SDS011;30973;51.442;3.580;2023-06-04T01:52:18;4.88;;;1.65;;
45236;SDS011;30973;51.442;3.580;2023-06-04T01:54:47;2.30;;;1.50;;
45236;SDS011;30973;51.442;3.580;2023-06-04T01:57:21;3.05;;;1.88;;
45236;SDS011;30973;51.442;3.580;2023-06-04T01:59:47;3.55;;;1.75;;
45236;SDS011;30973;51.442;3.580;2023-06-04T02:02:14;3.45;;;1.52;;
45236;SDS011;30973;51.442;3.580;2023-06-04T02:04:42;2.85;;;1.88;;
45236;SDS011;30973;51.442;3.580;2023-06-04T02:07:09;2.00;;;1.40;;
45236;SDS011;30973;51.442;3.580;2023-06-04T02:09:36;2.95;;;1.70;;
45236;SDS011;30973;51.442;3.580;2023-06-04T02:12:03;4.18;;;1.60;;
45236;SDS011;30973;51.442;3.580;2023-06-04T02:14:30;2.63;;;1.73;;
45236;SDS011;30973;51.442;3.580;2023-06-04T02:16:57;4.85;;;1.95;;
45236;SDS011;30973;51.442;3.580;2023-06-04T02:19:24;2.45;;;1.60;;
45236;SDS011;30973;51.442;3.580;2023-06-04T02:21:52;2.70;;;1.90;;
45236;SDS011;30973;51.442;3.580;2023-06-04T02:24:19;4.15;;;1.67;;
45236;SDS011;30973;51.442;3.580;2023-06-04T02:26:46;5.80;;;1.77;;
45236;SDS011;30973;51.442;3.580;2023-06-04T02:29:13;6.85;;;1.80;;
45236;SDS011;30973;51.442;3.580;2023-06-04T02:31:40;6.90;;;2.10;;
45236;SDS011;30973;51.442;3.580;2023-06-04T02:34:07;3.10;;;2.03;;
45236;SDS011;30973;51.442;3.580;2023-06-04T02:36:33;3.10;;;1.70;;
45236;SDS011;30973;51.442;3.580;2023-06-04T02:39:01;3.55;;;1.77;;
45236;SDS011;30973;51.442;3.580;2023-06-04T02:41:27;6.25;;;1.80;;
45236;SDS011;30973;51.442;3.580;2023-06-04T02:43:54;2.55;;;1.73;;
45236;SDS011;30973;51.442;3.580;2023-06-04T02:46:21;7.15;;;1.70;;
45236;SDS011;30973;51.442;3.580;2023-06-04T02:48:47;3.15;;;2.03;;
45236;SDS011;30973;51.442;3.580;2023-06-04T02:51:14;5.07;;;1.83;;
45236;SDS011;30973;51.442;3.580;2023-06-04T02:53:40;5.20;;;1.80;;
45236;SDS011;30973;51.442;3.580;2023-06-04T02:56:10;3.42;;;2.00;;
45236;SDS011;30973;51.442;3.580;2023-06-04T02:58:37;2.38;;;1.50;;
45236;SDS011;30973;51.442;3.580;2023-06-04T03:01:06;3.15;;;2.08;;
45236;SDS011;30973;51.442;3.580;2023-06-04T03:03:35;4.18;;;2.00;;
45236;SDS011;30973;51.442;3.580;2023-06-04T03:06:02;3.65;;;1.60;;
45236;SDS011;30973;51.442;3.580;2023-06-04T03:08:31;4.28;;;2.05;;
45236;SDS011;30973;51.442;3.580;2023-06-04T03:10:58;3.55;;;1.90;;
45236;SDS011;30973;51.442;3.580;2023-06-04T03:13:24;4.88;;;2.10;;
45236;SDS011;30973;51.442;3.580;2023-06-04T03:15:51;3.78;;;1.98;;
45236;SDS011;30973;51.442;3.580;2023-06-04T03:18:19;4.00;;;1.80;;
45236;SDS011;30973;51.442;3.580;2023-06-04T03:20:47;3.05;;;1.77;;
45236;SDS011;30973;51.442;3.580;2023-06-04T03:23:14;3.15;;;1.90;;
45236;SDS011;30973;51.442;3.580;2023-06-04T03:25:41;3.28;;;1.80;;
45236;SDS011;30973;51.442;3.580;2023-06-04T03:28:07;4.88;;;1.83;;
45236;SDS011;30973;51.442;3.580;2023-06-04T03:30:34;5.63;;;2.13;;
45236;SDS011;30973;51.442;3.580;2023-06-04T03:33:03;3.88;;;1.70;;
45236;SDS011;30973;51.442;3.580;2023-06-04T03:35:31;2.92;;;2.15;;
45236;SDS011;30973;51.442;3.580;2023-06-04T03:37:59;4.50;;;2.13;;
45236;SDS011;30973;51.442;3.580;2023-06-04T03:40:26;2.65;;;1.90;;
45236;SDS011;30973;51.442;3.580;2023-06-04T03:42:53;3.90;;;1.88;;
45236;SDS011;30973;51.442;3.580;2023-06-04T03:45:23;3.50;;;1.83;;
45236;SDS011;30973;51.442;3.580;2023-06-04T03:47:49;4.72;;;1.90;;
45236;SDS011;30973;51.442;3.580;2023-06-04T03:50:19;3.65;;;2.00;;
45236;SDS011;30973;51.442;3.580;2023-06-04T03:52:48;4.38;;;1.98;;
45236;SDS011;30973;51.442;3.580;2023-06-04T03:55:15;7.32;;;2.50;;
45236;SDS011;30973;51.442;3.580;2023-06-04T03:57:43;5.25;;;1.92;;
45236;SDS011;30973;51.442;3.580;2023-06-04T04:00:10;4.05;;;2.00;;
45236;SDS011;30973;51.442;3.580;2023-06-04T04:02:39;6.22;;;1.95;;
45236;SDS011;30973;51.442;3.580;2023-06-04T04:05:09;2.97;;;1.83;;
45236;SDS011;30973;51.442;3.580;2023-06-04T04:07:36;2.75;;;1.85;;
45236;SDS011;30973;51.442;3.580;2023-06-04T04:10:04;3.90;;;1.80;;
45236;SDS011;30973;51.442;3.580;2023-06-04T04:12:32;4.55;;;2.08;;
45236;SDS011;30973;51.442;3.580;2023-06-04T04:14:59;5.82;;;1.98;;
45236;SDS011;30973;51.442;3.580;2023-06-04T04:17:25;3.00;;;1.65;;
45236;SDS011;30973;51.442;3.580;2023-06-04T04:19:53;4.40;;;2.13;;
45236;SDS011;30973;51.442;3.580;2023-06-04T04:22:20;2.67;;;1.75;;
45236;SDS011;30973;51.442;3.580;2023-06-04T04:24:47;5.65;;;2.10;;
45236;SDS011;30973;51.442;3.580;2023-06-04T04:27:13;4.25;;;2.08;;
45236;SDS011;30973;51.442;3.580;2023-06-04T04:29:42;6.57;;;1.85;;
45236;SDS011;30973;51.442;3.580;2023-06-04T04:32:11;3.13;;;1.90;;
45236;SDS011;30973;51.442;3.580;2023-06-04T04:34:52;4.13;;;1.65;;
45236;SDS011;30973;51.442;3.580;2023-06-04T04:37:25;4.30;;;1.95;;
45236;SDS011;30973;51.442;3.580;2023-06-04T04:39:55;4.57;;;1.90;;
45236;SDS011;30973;51.442;3.580;2023-06-04T04:42:24;3.78;;;2.03;;
45236;SDS011;30973;51.442;3.580;2023-06-04T04:44:50;3.97;;;1.90;;
45236;SDS011;30973;51.442;3.580;2023-06-04T04:47:20;7.20;;;2.00;;
45236;SDS011;30973;51.442;3.580;2023-06-04T04:49:47;3.22;;;1.73;;
45236;SDS011;30973;51.442;3.580;2023-06-04T04:52:16;5.10;;;2.00;;
45236;SDS011;30973;51.442;3.580;2023-06-04T04:54:43;4.35;;;2.08;;
45236;SDS011;30973;51.442;3.580;2023-06-04T04:57:10;3.97;;;1.58;;
45236;SDS011;30973;51.442;3.580;2023-06-04T04:59:43;4.25;;;2.15;;
45236;SDS011;30973;51.442;3.580;2023-06-04T05:02:09;6.38;;;1.95;;
45236;SDS011;30973;51.442;3.580;2023-06-04T05:04:36;4.60;;;2.05;;
45236;SDS011;30973;51.442;3.580;2023-06-04T05:07:03;3.80;;;1.85;;
45236;SDS011;30973;51.442;3.580;2023-06-04T05:09:30;3.22;;;1.80;;
45236;SDS011;30973;51.442;3.580;2023-06-04T05:11:56;3.83;;;2.03;;
45236;SDS011;30973;51.442;3.580;2023-06-04T05:14:24;5.20;;;2.17;;
45236;SDS011;30973;51.442;3.580;2023-06-04T05:16:51;6.03;;;1.77;;
45236;SDS011;30973;51.442;3.580;2023-06-04T05:19:19;3.03;;;1.80;;
45236;SDS011;30973;51.442;3.580;2023-06-04T05:21:46;5.57;;;1.98;;
45236;SDS011;30973;51.442;3.580;2023-06-04T05:24:15;3.55;;;1.90;;
45236;SDS011;30973;51.442;3.580;2023-06-04T05:26:43;4.47;;;1.60;;
45236;SDS011;30973;51.442;3.580;2023-06-04T05:29:16;4.85;;;2.00;;
45236;SDS011;30973;51.442;3.580;2023-06-04T05:31:44;3.75;;;1.75;;
45236;SDS011;30973;51.442;3.580;2023-06-04T05:34:14;3.42;;;1.65;;
45236;SDS011;30973;51.442;3.580;2023-06-04T05:36:44;5.80;;;1.75;;
45236;SDS011;30973;51.442;3.580;2023-06-04T05:39:11;3.25;;;1.60;;
45236;SDS011;30973;51.442;3.580;2023-06-04T05:41:56;3.30;;;1.80;;
45236;SDS011;30973;51.442;3.580;2023-06-04T05:44:22;3.40;;;2.03;;
45236;SDS011;30973;51.442;3.580;2023-06-04T05:46:49;3.28;;;1.70;;
45236;SDS011;30973;51.442;3.580;2023-06-04T05:49:16;3.85;;;1.70;;
45236;SDS011;30973;51.442;3.580;2023-06-04T05:51:43;3.40;;;1.80;;
45236;SDS011;30973;51.442;3.580;2023-06-04T05:54:10;3.15;;;1.70;;
45236;SDS011;30973;51.442;3.580;2023-06-04T05:56:40;5.30;;;2.08;;
45236;SDS011;30973;51.442;3.580;2023-06-04T05:59:07;2.90;;;1.85;;
45236;SDS011;30973;51.442;3.580;2023-06-04T06:01:33;3.47;;;1.65;;
45236;SDS011;30973;51.442;3.580;2023-06-04T06:04:01;3.85;;;2.08;;
45236;SDS011;30973;51.442;3.580;2023-06-04T06:06:28;3.63;;;1.75;;
45236;SDS011;30973;51.442;3.580;2023-06-04T06:08:55;4.85;;;1.63;;
45236;SDS011;30973;51.442;3.580;2023-06-04T06:11:22;3.08;;;1.80;;
45236;SDS011;30973;51.442;3.580;2023-06-04T06:13:49;2.40;;;1.63;;
45236;SDS011;30973;51.442;3.580;2023-06-04T06:16:16;3.13;;;1.60;;
45236;SDS011;30973;51.442;3.580;2023-06-04T06:18:44;2.58;;;1.67;;
45236;SDS011;30973;51.442;3.580;2023-06-04T06:21:11;3.20;;;1.67;;
45236;SDS011;30973;51.442;3.580;2023-06-04T06:23:39;4.95;;;1.58;;
45236;SDS011;30973;51.442;3.580;2023-06-04T06:26:06;3.20;;;1.40;;
45236;SDS011;30973;51.442;3.580;2023-06-04T06:28:41;2.60;;;1.70;;
45236;SDS011;30973;51.442;3.580;2023-06-04T06:31:08;3.13;;;1.70;;
45236;SDS011;30973;51.442;3.580;2023-06-04T06:33:35;5.70;;;1.42;;
45236;SDS011;30973;51.442;3.580;2023-06-04T06:36:10;3.85;;;1.70;;
45236;SDS011;30973;51.442;3.580;2023-06-04T06:38:39;3.17;;;1.42;;
45236;SDS011;30973;51.442;3.580;2023-06-04T06:41:06;2.35;;;1.42;;
45236;SDS011;30973;51.442;3.580;2023-06-04T06:43:34;2.58;;;1.63;;
45236;SDS011;30973;51.442;3.580;2023-06-04T06:46:00;3.72;;;1.58;;
45236;SDS011;30973;51.442;3.580;2023-06-04T06:48:27;3.47;;;1.70;;
45236;SDS011;30973;51.442;3.580;2023-06-04T06:50:54;2.80;;;1.30;;
45236;SDS011;30973;51.442;3.580;2023-06-04T06:53:21;4.38;;;1.50;;
45236;SDS011;30973;51.442;3.580;2023-06-04T06:55:47;3.00;;;1.77;;
45236;SDS011;30973;51.442;3.580;2023-06-04T06:58:14;4.55;;;1.42;;
45236;SDS011;30973;51.442;3.580;2023-06-04T07:00:41;4.75;;;1.42;;
45236;SDS011;30973;51.442;3.580;2023-06-04T07:03:08;3.50;;;1.55;;
45236;SDS011;30973;51.442;3.580;2023-06-04T07:05:35;3.08;;;1.20;;
45236;SDS011;30973;51.442;3.580;2023-06-04T07:08:01;2.97;;;1.40;;
45236;SDS011;30973;51.442;3.580;2023-06-04T07:10:29;2.28;;;1.50;;
45236;SDS011;30973;51.442;3.580;2023-06-04T07:12:56;2.85;;;1.55;;
45236;SDS011;30973;51.442;3.580;2023-06-04T07:15:23;2.63;;;1.40;;
45236;SDS011;30973;51.442;3.580;2023-06-04T07:17:49;4.10;;;1.40;;
45236;SDS011;30973;51.442;3.580;2023-06-04T07:20:16;2.08;;;1.20;;
45236;SDS011;30973;51.442;3.580;2023-06-04T07:22:43;2.38;;;1.35;;
45236;SDS011;30973;51.442;3.580;2023-06-04T07:25:09;4.15;;;1.40;;
45236;SDS011;30973;51.442;3.580;2023-06-04T07:27:36;4.35;;;1.48;;
45236;SDS011;30973;51.442;3.580;2023-06-04T07:30:03;3.35;;;1.40;;
45236;SDS011;30973;51.442;3.580;2023-06-04T07:32:30;3.45;;;1.55;;
45236;SDS011;30973;51.442;3.580;2023-06-04T07:34:56;2.95;;;1.45;;
45236;SDS011;30973;51.442;3.580;2023-06-04T07:37:23;2.45;;;1.35;;
45236;SDS011;30973;51.442;3.580;2023-06-04T07:39:49;4.38;;;1.60;;
45236;SDS011;30973;51.442;3.580;2023-06-04T07:42:16;3.08;;;1.60;;
45236;SDS011;30973;51.442;3.580;2023-06-04T07:44:43;2.97;;;1.70;;
45236;SDS011;30973;51.442;3.580;2023-06-04T07:47:10;2.67;;;1.52;;
45236;SDS011;30973;51.442;3.580;2023-06-04T07:49:36;2.25;;;1.33;;
45236;SDS011;30973;51.442;3.580;2023-06-04T07:52:16;4.13;;;1.40;;
45236;SDS011;30973;51.442;3.580;2023-06-04T07:54:42;3.45;;;1.50;;
45236;SDS011;30973;51.442;3.580;2023-06-04T07:57:09;3.00;;;1.70;;
45236;SDS011;30973;51.442;3.580;2023-06-04T07:59:36;3.55;;;1.45;;
45236;SDS011;30973;51.442;3.580;2023-06-04T08:02:03;3.40;;;1.63;;
45236;SDS011;30973;51.442;3.580;2023-06-04T08:04:30;2.42;;;1.40;;
45236;SDS011;30973;51.442;3.580;2023-06-04T08:06:56;2.17;;;1.48;;
45236;SDS011;30973;51.442;3.580;2023-06-04T08:09:23;3.63;;;1.30;;
45236;SDS011;30973;51.442;3.580;2023-06-04T08:11:50;2.42;;;1.45;;
45236;SDS011;30973;51.442;3.580;2023-06-04T08:14:16;4.20;;;1.50;;
45236;SDS011;30973;51.442;3.580;2023-06-04T08:16:43;5.30;;;1.70;;
45236;SDS011;30973;51.442;3.580;2023-06-04T08:19:10;3.85;;;1.50;;
45236;SDS011;30973;51.442;3.580;2023-06-04T08:21:37;3.08;;;1.38;;
45236;SDS011;30973;51.442;3.580;2023-06-04T08:24:03;3.72;;;1.35;;
45236;SDS011;30973;51.442;3.580;2023-06-04T08:26:30;3.22;;;1.58;;
45236;SDS011;30973;51.442;3.580;2023-06-04T08:28:58;4.10;;;1.50;;
45236;SDS011;30973;51.442;3.580;2023-06-04T08:31:25;4.05;;;1.50;;
45236;SDS011;30973;51.442;3.580;2023-06-04T08:33:52;2.05;;;1.25;;
45236;SDS011;30973;51.442;3.580;2023-06-04T08:36:19;3.28;;;1.30;;
45236;SDS011;30973;51.442;3.580;2023-06-04T08:38:45;5.03;;;1.40;;
45236;SDS011;30973;51.442;3.580;2023-06-04T08:41:20;2.65;;;1.35;;
45236;SDS011;30973;51.442;3.580;2023-06-04T08:43:48;3.28;;;1.40;;
45236;SDS011;30973;51.442;3.580;2023-06-04T08:46:16;3.20;;;1.45;;
45236;SDS011;30973;51.442;3.580;2023-06-04T08:48:44;2.45;;;1.35;;
45236;SDS011;30973;51.442;3.580;2023-06-04T08:51:10;3.50;;;1.35;;
45236;SDS011;30973;51.442;3.580;2023-06-04T08:53:37;3.50;;;1.55;;
45236;SDS011;30973;51.442;3.580;2023-06-04T08:56:04;3.03;;;1.60;;
45236;SDS011;30973;51.442;3.580;2023-06-04T08:58:31;2.13;;;1.40;;
45236;SDS011;30973;51.442;3.580;2023-06-04T09:01:00;2.72;;;1.42;;
45236;SDS011;30973;51.442;3.580;2023-06-04T09:03:27;4.78;;;1.63;;
45236;SDS011;30973;51.442;3.580;2023-06-04T09:05:56;3.08;;;1.17;;
45236;SDS011;30973;51.442;3.580;2023-06-04T09:08:23;2.95;;;1.40;;
45236;SDS011;30973;51.442;3.580;2023-06-04T09:10:51;2.28;;;1.40;;
45236;SDS011;30973;51.442;3.580;2023-06-04T09:13:18;2.15;;;1.20;;
45236;SDS011;30973;51.442;3.580;2023-06-04T09:16:00;3.75;;;1.40;;
45236;SDS011;30973;51.442;3.580;2023-06-04T09:18:27;1.70;;;1.10;;
45236;SDS011;30973;51.442;3.580;2023-06-04T09:21:06;3.47;;;1.30;;
45236;SDS011;30973;51.442;3.580;2023-06-04T09:23:35;2.75;;;1.27;;
45236;SDS011;30973;51.442;3.580;2023-06-04T09:26:08;1.83;;;1.30;;
45236;SDS011;30973;51.442;3.580;2023-06-04T09:28:35;2.03;;;1.30;;
45236;SDS011;30973;51.442;3.580;2023-06-04T09:31:02;2.75;;;1.33;;
45236;SDS011;30973;51.442;3.580;2023-06-04T09:33:29;3.22;;;1.40;;
45236;SDS011;30973;51.442;3.580;2023-06-04T09:35:56;3.58;;;1.30;;
45236;SDS011;30973;51.442;3.580;2023-06-04T09:38:23;3.03;;;1.60;;
45236;SDS011;30973;51.442;3.580;2023-06-04T09:40:50;2.92;;;1.33;;
45236;SDS011;30973;51.442;3.580;2023-06-04T09:43:22;2.25;;;1.40;;
45236;SDS011;30973;51.442;3.580;2023-06-04T09:45:52;2.25;;;1.30;;
45236;SDS011;30973;51.442;3.580;2023-06-04T09:48:19;3.67;;;1.63;;
45236;SDS011;30973;51.442;3.580;2023-06-04T09:50:47;2.67;;;1.25;;
45236;SDS011;30973;51.442;3.580;2023-06-04T09:55:42;3.00;;;1.58;;
45236;SDS011;30973;51.442;3.580;2023-06-04T09:58:09;3.55;;;1.20;;
45236;SDS011;30973;51.442;3.580;2023-06-04T10:00:36;2.45;;;1.20;;
45236;SDS011;30973;51.442;3.580;2023-06-04T10:03:03;5.53;;;1.67;;
45236;SDS011;30973;51.442;3.580;2023-06-04T10:05:34;1.90;;;1.30;;
45236;SDS011;30973;51.442;3.580;2023-06-04T10:08:03;2.30;;;1.33;;
45236;SDS011;30973;51.442;3.580;2023-06-04T10:10:33;4.72;;;1.65;;
45236;SDS011;30973;51.442;3.580;2023-06-04T10:13:11;3.33;;;1.30;;
45236;SDS011;30973;51.442;3.580;2023-06-04T10:15:39;2.88;;;1.10;;
45236;SDS011;30973;51.442;3.580;2023-06-04T10:18:05;4.00;;;1.48;;
45236;SDS011;30973;51.442;3.580;2023-06-04T10:20:32;6.95;;;1.45;;
45236;SDS011;30973;51.442;3.580;2023-06-04T10:22:59;3.42;;;1.52;;
45236;SDS011;30973;51.442;3.580;2023-06-04T10:25:27;4.68;;;1.25;;
45236;SDS011;30973;51.442;3.580;2023-06-04T10:27:55;4.00;;;1.10;;
45236;SDS011;30973;51.442;3.580;2023-06-04T10:30:22;3.30;;;1.30;;
45236;SDS011;30973;51.442;3.580;2023-06-04T10:32:49;2.28;;;1.10;;
45236;SDS011;30973;51.442;3.580;2023-06-04T10:35:16;4.60;;;1.30;;
45236;SDS011;30973;51.442;3.580;2023-06-04T10:37:43;4.28;;;1.23;;
45236;SDS011;30973;51.442;3.580;2023-06-04T10:40:10;2.33;;;1.10;;
45236;SDS011;30973;51.442;3.580;2023-06-04T10:42:37;4.25;;;1.60;;
45236;SDS011;30973;51.442;3.580;2023-06-04T10:45:04;2.28;;;1.05;;
45236;SDS011;30973;51.442;3.580;2023-06-04T10:47:31;3.13;;;1.30;;
45236;SDS011;30973;51.442;3.580;2023-06-04T10:52:37;4.55;;;1.40;;
45236;SDS011;30973;51.442;3.580;2023-06-04T10:55:05;2.90;;;1.30;;
45236;SDS011;30973;51.442;3.580;2023-06-04T10:57:32;2.80;;;1.13;;
45236;SDS011;30973;51.442;3.580;2023-06-04T10:59:59;1.80;;;1.10;;
45236;SDS011;30973;51.442;3.580;2023-06-04T11:02:26;2.67;;;1.30;;
45236;SDS011;30973;51.442;3.580;2023-06-04T11:05:03;2.28;;;1.40;;
45236;SDS011;30973;51.442;3.580;2023-06-04T11:07:40;2.78;;;1.50;;
45236;SDS011;30973;51.442;3.580;2023-06-04T11:10:07;3.50;;;1.50;;
45236;SDS011;30973;51.442;3.580;2023-06-04T11:12:46;4.90;;;1.30;;
45236;SDS011;30973;51.442;3.580;2023-06-04T11:15:15;3.03;;;1.50;;
45236;SDS011;30973;51.442;3.580;2023-06-04T11:17:49;1.88;;;1.25;;
45236;SDS011;30973;51.442;3.580;2023-06-04T11:20:19;5.40;;;1.80;;
45236;SDS011;30973;51.442;3.580;2023-06-04T11:22:56;7.30;;;1.90;;
45236;SDS011;30973;51.442;3.580;2023-06-04T11:25:24;4.80;;;1.60;;
45236;SDS011;30973;51.442;3.580;2023-06-04T11:27:53;2.40;;;1.52;;
45236;SDS011;30973;51.442;3.580;2023-06-04T11:30:20;5.82;;;1.80;;
45236;SDS011;30973;51.442;3.580;2023-06-04T11:32:46;3.10;;;1.90;;
45236;SDS011;30973;51.442;3.580;2023-06-04T11:35:13;6.97;;;2.05;;
45236;SDS011;30973;51.442;3.580;2023-06-04T11:37:40;4.72;;;1.95;;
45236;SDS011;30973;51.442;3.580;2023-06-04T11:40:16;6.53;;;2.05;;
45236;SDS011;30973;51.442;3.580;2023-06-04T11:42:44;5.28;;;2.10;;
45236;SDS011;30973;51.442;3.580;2023-06-04T11:45:12;4.78;;;2.10;;
45236;SDS011;30973;51.442;3.580;2023-06-04T11:47:38;6.00;;;2.13;;
45236;SDS011;30973;51.442;3.580;2023-06-04T11:50:06;6.22;;;1.77;;
45236;SDS011;30973;51.442;3.580;2023-06-04T11:52:36;5.75;;;2.10;;
45236;SDS011;30973;51.442;3.580;2023-06-04T11:55:03;6.07;;;2.47;;
45236;SDS011;30973;51.442;3.580;2023-06-04T11:57:30;6.97;;;2.58;;
45236;SDS011;30973;51.442;3.580;2023-06-04T11:59:57;9.00;;;1.80;;
45236;SDS011;30973;51.442;3.580;2023-06-04T12:02:24;6.90;;;2.42;;
45236;SDS011;30973;51.442;3.580;2023-06-04T12:04:51;7.00;;;2.15;;
45236;SDS011;30973;51.442;3.580;2023-06-04T12:07:21;6.15;;;2.17;;
45236;SDS011;30973;51.442;3.580;2023-06-04T12:09:51;7.43;;;2.03;;
45236;SDS011;30973;51.442;3.580;2023-06-04T12:12:21;5.80;;;2.30;;
45236;SDS011;30973;51.442;3.580;2023-06-04T12:14:48;7.40;;;2.45;;
45236;SDS011;30973;51.442;3.580;2023-06-04T12:17:22;5.65;;;1.88;;
45236;SDS011;30973;51.442;3.580;2023-06-04T12:19:50;10.73;;;2.25;;
45236;SDS011;30973;51.442;3.580;2023-06-04T12:22:17;5.80;;;2.20;;
45236;SDS011;30973;51.442;3.580;2023-06-04T12:24:48;5.53;;;2.30;;
45236;SDS011;30973;51.442;3.580;2023-06-04T12:27:15;7.20;;;2.40;;
45236;SDS011;30973;51.442;3.580;2023-06-04T12:29:42;5.20;;;2.10;;
45236;SDS011;30973;51.442;3.580;2023-06-04T12:32:09;8.07;;;2.03;;
45236;SDS011;30973;51.442;3.580;2023-06-04T12:34:41;6.13;;;2.30;;
45236;SDS011;30973;51.442;3.580;2023-06-04T12:37:08;7.10;;;2.22;;
45236;SDS011;30973;51.442;3.580;2023-06-04T12:39:35;6.00;;;2.15;;
45236;SDS011;30973;51.442;3.580;2023-06-04T12:42:05;8.88;;;2.10;;
45236;SDS011;30973;51.442;3.580;2023-06-04T12:44:33;5.43;;;2.00;;
45236;SDS011;30973;51.442;3.580;2023-06-04T12:47:01;6.20;;;2.20;;
45236;SDS011;30973;51.442;3.580;2023-06-04T12:49:28;11.48;;;2.95;;
45236;SDS011;30973;51.442;3.580;2023-06-04T12:51:55;7.82;;;2.45;;
45236;SDS011;30973;51.442;3.580;2023-06-04T12:54:21;6.95;;;2.20;;
45236;SDS011;30973;51.442;3.580;2023-06-04T12:56:51;6.18;;;2.10;;
45236;SDS011;30973;51.442;3.580;2023-06-04T12:59:17;6.72;;;2.30;;
45236;SDS011;30973;51.442;3.580;2023-06-04T13:01:44;7.55;;;2.42;;
45236;SDS011;30973;51.442;3.580;2023-06-04T13:04:11;8.98;;;2.70;;
45236;SDS011;30973;51.442;3.580;2023-06-04T13:06:38;6.70;;;2.00;;
45236;SDS011;30973;51.442;3.580;2023-06-04T13:09:05;7.88;;;2.25;;
45236;SDS011;30973;51.442;3.580;2023-06-04T13:11:43;7.33;;;2.50;;
45236;SDS011;30973;51.442;3.580;2023-06-04T13:14:10;6.72;;;2.22;;
45236;SDS011;30973;51.442;3.580;2023-06-04T13:16:38;7.38;;;2.15;;
45236;SDS011;30973;51.442;3.580;2023-06-04T13:19:05;5.47;;;1.92;;
45236;SDS011;30973;51.442;3.580;2023-06-04T13:21:32;6.88;;;2.28;;
45236;SDS011;30973;51.442;3.580;2023-06-04T13:23:59;6.55;;;2.15;;
45236;SDS011;30973;51.442;3.580;2023-06-04T13:26:25;5.93;;;2.00;;
45236;SDS011;30973;51.442;3.580;2023-06-04T13:28:52;9.77;;;2.50;;
45236;SDS011;30973;51.442;3.580;2023-06-04T13:31:18;5.28;;;2.00;;
45236;SDS011;30973;51.442;3.580;2023-06-04T13:33:45;6.95;;;2.47;;
45236;SDS011;30973;51.442;3.580;2023-06-04T13:36:12;5.55;;;2.10;;
45236;SDS011;30973;51.442;3.580;2023-06-04T13:38:39;6.47;;;2.35;;
45236;SDS011;30973;51.442;3.580;2023-06-04T13:41:07;6.32;;;2.15;;
45236;SDS011;30973;51.442;3.580;2023-06-04T13:43:35;9.73;;;2.40;;
45236;SDS011;30973;51.442;3.580;2023-06-04T13:46:01;7.50;;;2.55;;
45236;SDS011;30973;51.442;3.580;2023-06-04T13:48:28;9.43;;;3.17;;
45236;SDS011;30973;51.442;3.580;2023-06-04T13:50:54;9.23;;;2.30;;
45236;SDS011;30973;51.442;3.580;2023-06-04T13:53:21;5.57;;;1.80;;
45236;SDS011;30973;51.442;3.580;2023-06-04T13:55:48;8.23;;;2.30;;
45236;SDS011;30973;51.442;3.580;2023-06-04T13:58:15;6.75;;;2.17;;
45236;SDS011;30973;51.442;3.580;2023-06-04T14:00:41;8.20;;;2.53;;
45236;SDS011;30973;51.442;3.580;2023-06-04T14:03:08;5.35;;;2.10;;
45236;SDS011;30973;51.442;3.580;2023-06-04T14:05:35;8.55;;;3.00;;
45236;SDS011;30973;51.442;3.580;2023-06-04T14:08:01;5.63;;;1.92;;
45236;SDS011;30973;51.442;3.580;2023-06-04T14:10:29;8.02;;;2.35;;
45236;SDS011;30973;51.442;3.580;2023-06-04T14:12:55;7.63;;;2.80;;
45236;SDS011;30973;51.442;3.580;2023-06-04T14:15:22;5.75;;;1.85;;
45236;SDS011;30973;51.442;3.580;2023-06-04T14:17:49;6.43;;;2.28;;
45236;SDS011;30973;51.442;3.580;2023-06-04T14:20:16;10.27;;;2.65;;
45236;SDS011;30973;51.442;3.580;2023-06-04T14:22:42;7.40;;;2.25;;
45236;SDS011;30973;51.442;3.580;2023-06-04T14:25:09;7.53;;;2.08;;
45236;SDS011;30973;51.442;3.580;2023-06-04T14:27:36;7.63;;;2.33;;
45236;SDS011;30973;51.442;3.580;2023-06-04T14:30:03;6.00;;;2.28;;
45236;SDS011;30973;51.442;3.580;2023-06-04T14:32:30;10.25;;;2.50;;
45236;SDS011;30973;51.442;3.580;2023-06-04T14:34:57;6.57;;;2.30;;
45236;SDS011;30973;51.442;3.580;2023-06-04T14:37:24;7.30;;;2.28;;
45236;SDS011;30973;51.442;3.580;2023-06-04T14:39:50;9.38;;;2.55;;
45236;SDS011;30973;51.442;3.580;2023-06-04T14:42:17;6.97;;;2.30;;
45236;SDS011;30973;51.442;3.580;2023-06-04T14:44:44;6.88;;;2.38;;
45236;SDS011;30973;51.442;3.580;2023-06-04T14:47:11;9.18;;;2.50;;
45236;SDS011;30973;51.442;3.580;2023-06-04T14:49:38;7.72;;;2.03;;
45236;SDS011;30973;51.442;3.580;2023-06-04T14:52:04;10.48;;;2.63;;
45236;SDS011;30973;51.442;3.580;2023-06-04T14:54:32;6.68;;;2.40;;
45236;SDS011;30973;51.442;3.580;2023-06-04T14:56:59;6.50;;;2.60;;
45236;SDS011;30973;51.442;3.580;2023-06-04T14:59:26;6.53;;;2.03;;
45236;SDS011;30973;51.442;3.580;2023-06-04T15:01:52;8.80;;;2.10;;